Gainesville Regional Airport
KGNV : now visible

Airfield :











YOU CAN JOIN US ON...

 
LOGIN :

Register | Disclaimer

   EN    FR    IT 

 









Legend :    VFR   Marginal VFR   IFR   Intensive IFR   Very Intensive IFR
Visi :
Ceiling :
>= 8 km
>= 3000ft
5 to 8 km
1000 to 3000 ft
1500m to 5 km
500 to 1000 ft
800 to 1500m
200 to 500 ft
< 800m
< 200 ft
Symbols :   Thunderstorms  Fog  Heavy snow  Heavy precipitations  Wind > 20 kt







- Airport Elevation : 152 ft
- IATA code : GNV


KGNV - Gainesville Regional

CURRENT METAR :
  • 230953Z AUTO 00000KT 10SM CLR 12/09 A3015 RMK AO2 SLP206 T01220094

EXPIRED METARs :
  • 230853Z AUTO 00000KT 10SM CLR 12/09 A3015 RMK AO2 SLP208 T01170089 55009
  • 230753Z AUTO 00000KT 10SM CLR 12/09 A3014 RMK AO2 SLP205 T01220094

TAF KGNV
Valid from the 23 at 06:00 until the 24 at 06:00 UTC


230522Z 2306/2406 00000KT P6SM FEW250
FM231300 18002KT P6SM FEW250
FM232000 14006KT P6SM FEW250
FM240100 13003KT P6SM SCT250
KZJX FIR / North America



MET'MAP, your aeronautical weather chart ! - Copyright ORBIFLY December 2007 - Disclaimer

ORBIFLY MET'MAP TEAM :

Programming & Development : Alexandra Zaïnal
Concept & Development : Baudouin d'Aumeries
Co-Development & Prog : Marc-Olivier Méhu
Technical & hardware support : Manuel Goepfert

Contact : metmap@orbifly.com




SOURCES & CREDITS :

   NOAA       Earth
Advisory